Current Conditions
Partly Cloudy
Conditions



Pressure
989.84 (hPa) - 29.23 (inHG)
Visibility

6.0 (miles) - 9.7 (km)
Temperature
1  °C
Temperature
1  °C
Dewpoint
100  %
 Humidity
Wind Speed
6  mph
5  kts
10  km/h
2.7  m/s
Wind Direction
N
45°
E
90°
135°
S
180°
225°
W
270°
315°
 210°

South South
West
Airport Data
EGVO
RAF Odiham
Metar :EGVO 232220Z AUTO 21005KT 9999 FEW057/// 01/01 Q0990
Fri 23rd February 22:20 pm
Raw Metar Info
Raw METAR is the most common format in the world for the transmission of observational weather data. It is highly standardized through the International Civil Aviation Organization (ICAO), which allows it to be understood throughout most of the world.
API Info
Data Provided by
https://www.checkwx.com/weather/EGVO

Aviation Weather providing METAR, TAF, AIRMET, SIGMET and OUTLOOK Weather Reports
© Info
CSS/SVG/PHP scripts were developed by weather34.com for use in the weather34 template © 2015-2024

Guide Info provided by Metar-Wikipedia